createdAt,value
2023-01-01T00:01:10.477Z,99962.25
2023-01-01T00:03:39.430Z,99954.16
2023-01-01T00:06:07.900Z,99961.72
2023-01-01T00:08:37.069Z,99956.88
2023-01-01T00:11:05.749Z,99945.25
2023-01-01T00:13:33.676Z,99960.66
2023-01-01T00:16:05.700Z,99961.19
2023-01-01T00:18:33.347Z,99971.22
2023-01-01T00:21:05.179Z,99966.56
2023-01-01T00:23:32.972Z,99962.28
2023-01-01T00:26:02.314Z,99975.81
2023-01-01T00:28:30.058Z,99977.94
2023-01-01T00:30:57.610Z,99990.94
2023-01-01T00:33:25.196Z,99979.56
2023-01-01T00:35:52.933Z,99982.53
2023-01-01T00:38:20.496Z,99968.19
2023-01-01T00:40:48.204Z,99992.53
2023-01-01T00:43:17.093Z,99984.41
2023-01-01T00:45:47.826Z,99989.78
2023-01-01T00:48:15.586Z,99961.97
2023-01-01T00:50:43.139Z,99979.56
2023-01-01T00:53:10.734Z,99960.72
2023-01-01T00:55:40.338Z,99977.13
2023-01-01T00:58:08.099Z,99973.66
2023-01-01T01:00:37.349Z,99975.22
2023-01-01T01:03:05.564Z,99977.38
2023-01-01T01:05:34.168Z,99972.03
2023-01-01T01:08:01.902Z,99999.25
2023-01-01T01:10:29.712Z,99992.50
2023-01-01T01:12:57.269Z,99990.59
2023-01-01T01:15:24.968Z,99975.50
2023-01-01T01:17:53.921Z,99965.00
2023-01-01T01:20:21.473Z,99984.63
2023-01-01T01:22:49.149Z,99976.53
2023-01-01T01:25:16.957Z,99989.25
2023-01-01T01:27:44.491Z,99984.34
2023-01-01T01:30:12.800Z,99974.72
2023-01-01T01:32:40.343Z,99985.25
2023-01-01T01:35:10.492Z,100003.72
2023-01-01T01:37:38.220Z,100006.97
2023-01-01T01:40:06.920Z,100009.19
2023-01-01T01:42:34.439Z,100004.88
2023-01-01T01:45:03.701Z,100001.66
2023-01-01T01:47:35.609Z,100019.69
2023-01-01T01:50:08.130Z,100019.97
2023-01-01T01:52:40.049Z,100030.22
2023-01-01T01:55:09.606Z,100025.94
2023-01-01T01:57:38.268Z,100023.22
2023-01-01T02:00:10.857Z,100031.91
2023-01-01T02:02:41.482Z,100018.44
2023-01-01T02:05:09.736Z,100011.28
2023-01-01T02:07:39.156Z,100017.34
2023-01-01T02:10:07.349Z,100020.19
2023-01-01T02:12:34.927Z,100014.06
2023-01-01T02:15:03.574Z,100025.56
2023-01-01T02:17:38.772Z,100000.22
2023-01-01T02:20:23.116Z,100011.38
2023-01-01T02:23:24.197Z,100015.63
2023-01-01T02:26:13.012Z,100017.19
2023-01-01T02:28:54.184Z,100019.09
2023-01-01T02:31:27.045Z,100013.69
2023-01-01T02:33:56.415Z,100022.53
2023-01-01T02:36:25.213Z,100031.13
2023-01-01T02:38:54.569Z,100018.25
2023-01-01T02:41:24.690Z,100019.88
2023-01-01T02:43:54.384Z,100019.34
2023-01-01T02:48:49.824Z,100024.22
2023-01-01T02:51:24.003Z,100012.25
2023-01-01T02:53:59.376Z,100013.13
2023-01-01T02:56:36.192Z,100012.06
2023-01-01T02:59:32.611Z,100037.59
2023-01-01T03:02:04.939Z,100033.88
2023-01-01T03:04:37.897Z,100028.19
2023-01-01T03:07:12.614Z,100043.50
2023-01-01T03:09:44.978Z,100055.53
2023-01-01T03:12:19.912Z,100060.94
2023-01-01T03:14:53.065Z,100052.59
2023-01-01T03:17:27.269Z,100062.78
2023-01-01T03:19:56.561Z,100065.19
2023-01-01T03:22:26.974Z,100065.50
2023-01-01T03:24:56.436Z,100079.81
2023-01-01T03:27:27.019Z,100055.97
2023-01-01T03:29:58.362Z,100072.88
2023-01-01T03:32:49.478Z,100052.41
2023-01-01T03:35:19.723Z,100060.75
2023-01-01T03:37:48.151Z,100069.84
2023-01-01T03:40:16.307Z,100071.81
2023-01-01T03:42:47.247Z,100050.00
2023-01-01T03:45:19.738Z,100078.56
2023-01-01T03:47:47.690Z,100068.88
2023-01-01T03:50:15.993Z,100063.69
2023-01-01T03:52:47.557Z,100073.31
2023-01-01T03:55:19.391Z,100060.28
2023-01-01T03:57:51.892Z,100079.03
2023-01-01T04:00:22.660Z,100063.75
2023-01-01T04:02:53.835Z,100078.53
2023-01-01T04:05:21.778Z,100072.09
2023-01-01T04:10:20.449Z,100086.78
2023-01-01T04:12:49.693Z,100083.53
2023-01-01T04:15:18.398Z,100101.97
2023-01-01T04:17:47.692Z,100098.53
2023-01-01T04:20:16.279Z,100113.53
2023-01-01T04:22:44.263Z,100098.41
2023-01-01T04:25:12.869Z,100105.00
2023-01-01T04:27:41.145Z,100089.53
2023-01-01T04:30:11.826Z,100090.81
2023-01-01T04:32:39.641Z,100087.88
2023-01-01T04:35:12.148Z,100102.16
2023-01-01T04:37:40.261Z,100088.72
2023-01-01T04:40:09.650Z,100090.31
2023-01-01T04:42:37.631Z,100107.78
2023-01-01T04:45:05.879Z,100101.09
2023-01-01T04:47:33.645Z,100128.09
2023-01-01T04:50:01.396Z,100127.09
2023-01-01T04:52:30.342Z,100138.09
2023-01-01T04:54:57.874Z,100109.69
2023-01-01T04:57:25.458Z,100125.06
2023-01-01T04:59:53.050Z,100132.81
2023-01-01T05:02:20.738Z,100125.53
2023-01-01T05:04:48.576Z,100134.44
2023-01-01T05:07:16.256Z,100140.47
2023-01-01T05:09:45.156Z,100131.34
2023-01-01T05:12:12.884Z,100142.84
2023-01-01T05:14:40.669Z,100136.63
2023-01-01T05:17:08.396Z,100147.59
2023-01-01T05:19:35.968Z,100150.09
2023-01-01T05:22:10.251Z,100148.88
2023-01-01T05:24:38.457Z,100125.22
2023-01-01T05:27:07.552Z,100126.91
2023-01-01T05:29:35.189Z,100141.78
2023-01-01T05:32:02.804Z,100142.47
2023-01-01T05:36:57.037Z,100137.59
2023-01-01T05:39:24.758Z,100131.56
2023-01-01T05:41:52.405Z,100135.75
2023-01-01T05:44:24.607Z,100139.66
2023-01-01T05:46:52.151Z,100145.13
2023-01-01T05:49:19.715Z,100149.78
2023-01-01T05:51:47.455Z,100168.72
2023-01-01T05:56:41.646Z,100186.00
2023-01-01T05:59:11.016Z,100183.16
2023-01-01T06:01:45.452Z,100188.56
2023-01-01T06:04:14.437Z,100202.84
2023-01-01T06:06:42.128Z,100206.69
2023-01-01T06:09:11.249Z,100223.69
2023-01-01T06:11:38.969Z,100232.16
2023-01-01T06:14:06.935Z,100205.88
2023-01-01T06:16:35.309Z,100203.09
2023-01-01T06:19:04.838Z,100202.44
2023-01-01T06:21:32.587Z,100215.81
2023-01-01T06:24:00.904Z,100212.09
2023-01-01T06:26:30.138Z,100216.47
2023-01-01T06:28:58.131Z,100217.63
2023-01-01T06:31:27.452Z,100203.13
2023-01-01T06:33:55.516Z,100211.25
2023-01-01T06:36:25.964Z,100207.19
2023-01-01T06:38:55.808Z,100219.19
2023-01-01T06:41:24.883Z,100237.47
2023-01-01T06:43:52.631Z,100226.28
2023-01-01T06:46:21.791Z,100233.31
2023-01-01T06:48:50.277Z,100233.16
2023-01-01T06:51:19.241Z,100245.22
2023-01-01T06:53:49.026Z,100241.59
2023-01-01T06:56:16.663Z,100261.72
2023-01-01T06:58:44.552Z,100266.94
2023-01-01T07:01:14.313Z,100284.69
2023-01-01T07:03:42.970Z,100269.16
2023-01-01T07:06:11.573Z,100274.13
2023-01-01T07:08:39.299Z,100293.03
2023-01-01T07:11:08.288Z,100290.47
2023-01-01T07:13:35.928Z,100291.47
2023-01-01T07:16:10.187Z,100306.84
2023-01-01T07:18:40.123Z,100301.78
2023-01-01T07:21:08.997Z,100311.66
2023-01-01T07:23:36.735Z,100320.91
2023-01-01T07:26:04.347Z,100282.53
2023-01-01T07:28:33.418Z,100290.44
2023-01-01T07:31:01.030Z,100310.34
2023-01-01T07:33:28.569Z,100332.84
2023-01-01T07:35:56.196Z,100345.81
2023-01-01T07:38:23.984Z,100357.41
2023-01-01T07:40:51.560Z,100361.56
2023-01-01T07:43:19.092Z,100369.00
2023-01-01T07:45:48.124Z,100365.25
2023-01-01T07:48:16.421Z,100357.81
2023-01-01T07:50:44.716Z,100362.03
2023-01-01T07:53:12.673Z,100352.78
2023-01-01T07:55:40.337Z,100357.94
2023-01-01T07:58:07.945Z,100373.25
2023-01-01T08:00:35.582Z,100382.13
2023-01-01T08:03:04.900Z,100397.06
2023-01-01T08:05:34.143Z,100398.81
2023-01-01T08:08:01.847Z,100398.78
2023-01-01T08:10:29.708Z,100398.88
2023-01-01T08:13:01.040Z,100418.94
2023-01-01T08:15:28.792Z,100424.16
2023-01-01T08:17:59.763Z,100433.84
2023-01-01T08:20:30.012Z,100442.53
2023-01-01T08:23:02.967Z,100452.06
2023-01-01T08:25:34.166Z,100461.06
2023-01-01T08:28:01.686Z,100449.69
2023-01-01T08:30:29.413Z,100448.34
2023-01-01T08:32:57.185Z,100452.16
2023-01-01T08:35:24.904Z,100449.31
2023-01-01T08:37:54.048Z,100451.75
2023-01-01T08:40:21.747Z,100468.78
2023-01-01T08:42:49.316Z,100476.97
2023-01-01T08:45:17.075Z,100476.00
2023-01-01T08:47:44.913Z,100471.75
2023-01-01T08:50:14.426Z,100468.78
2023-01-01T08:52:41.945Z,100457.44
2023-01-01T08:55:12.004Z,100471.31
2023-01-01T08:57:39.539Z,100478.00
2023-01-01T09:00:09.730Z,100483.97
2023-01-01T09:02:37.447Z,100483.38
2023-01-01T09:05:05.751Z,100484.03
2023-01-01T09:07:33.307Z,100495.59
2023-01-01T09:10:01.023Z,100497.31
2023-01-01T09:12:30.094Z,100495.16
2023-01-01T09:14:57.670Z,100507.81
2023-01-01T09:17:25.252Z,100515.69
2023-01-01T09:19:52.941Z,100513.47
2023-01-01T09:22:20.519Z,100524.66
2023-01-01T09:24:48.073Z,100518.97
2023-01-01T09:27:15.753Z,100517.97
2023-01-01T09:29:44.810Z,100527.28
2023-01-01T09:32:12.545Z,100511.03
2023-01-01T09:34:40.117Z,100502.56
2023-01-01T09:37:07.823Z,100503.38
2023-01-01T09:39:35.597Z,100507.91
2023-01-01T09:42:14.668Z,100520.66
2023-01-01T09:44:55.721Z,100516.13
2023-01-01T09:47:27.036Z,100517.75
2023-01-01T09:49:55.977Z,100526.41
2023-01-01T09:52:23.815Z,100532.66
2023-01-01T09:54:53.781Z,100525.63
2023-01-01T09:57:25.089Z,100534.31
2023-01-01T09:59:54.449Z,100535.09
2023-01-01T10:02:34.047Z,100540.09
2023-01-01T10:05:05.503Z,100529.41
2023-01-01T10:07:39.411Z,100538.28
2023-01-01T10:10:18.762Z,100530.22
2023-01-01T10:12:50.775Z,100517.06
2023-01-01T10:15:23.124Z,100523.25
2023-01-01T10:17:53.354Z,100523.69
2023-01-01T10:20:23.190Z,100507.75
2023-01-01T10:22:54.551Z,100514.16
2023-01-01T10:25:24.348Z,100527.81
2023-01-01T10:27:59.208Z,100514.63
2023-01-01T10:30:29.829Z,100516.94
2023-01-01T10:32:58.202Z,100513.47
2023-01-01T10:35:31.196Z,100519.44
2023-01-01T10:38:00.124Z,100498.66
2023-01-01T10:40:29.508Z,100493.94
2023-01-01T10:42:58.305Z,100489.78
2023-01-01T10:45:31.867Z,100483.22
2023-01-01T10:48:14.777Z,100479.88
2023-01-01T10:50:44.687Z,100477.22
2023-01-01T10:53:27.856Z,100468.06
2023-01-01T10:56:03.753Z,100461.84
2023-01-01T10:58:37.883Z,100457.66
2023-01-01T11:01:08.408Z,100452.63
2023-01-01T11:03:36.359Z,100450.50
2023-01-01T11:06:06.279Z,100441.63
2023-01-01T11:08:35.789Z,100445.81
2023-01-01T11:11:04.318Z,100455.50
2023-01-01T11:13:32.462Z,100454.16
2023-01-01T11:16:00.454Z,100462.97
2023-01-01T11:18:36.036Z,100476.44
2023-01-01T11:21:05.800Z,100473.06
2023-01-01T11:23:35.183Z,100470.25
2023-01-01T11:26:08.220Z,100474.13
2023-01-01T11:28:37.171Z,100485.31
2023-01-01T11:31:07.726Z,100496.44
2023-01-01T11:33:39.239Z,100493.94
2023-01-01T11:36:07.979Z,100486.22
2023-01-01T11:38:35.457Z,100495.00
2023-01-01T11:41:05.458Z,100510.66
2023-01-01T11:43:39.342Z,100510.66
2023-01-01T11:46:09.404Z,100507.78
2023-01-01T11:48:42.622Z,100504.75
2023-01-01T11:51:12.522Z,100518.91
2023-01-01T11:53:41.991Z,100509.53
2023-01-01T11:56:13.966Z,100502.50
2023-01-01T11:58:48.172Z,100514.81
2023-01-01T12:01:20.865Z,100505.31
2023-01-01T12:03:54.023Z,100506.00
2023-01-01T12:06:25.609Z,100516.41
2023-01-01T12:08:57.570Z,100525.22
2023-01-01T12:11:28.115Z,100525.00
2023-01-01T12:14:00.576Z,100525.28
2023-01-01T12:16:47.425Z,100534.13
2023-01-01T12:19:20.042Z,100545.84
2023-01-01T12:21:52.767Z,100539.31
2023-01-01T12:24:21.283Z,100543.91
2023-01-01T12:26:59.021Z,100538.97
2023-01-01T12:29:48.834Z,100546.59
2023-01-01T12:32:21.736Z,100540.63
2023-01-01T12:34:57.297Z,100536.81
2023-01-01T12:37:34.907Z,100539.50
2023-01-01T12:40:30.420Z,100548.88
2023-01-01T12:43:02.584Z,100549.94
2023-01-01T12:46:11.691Z,100557.06
2023-01-01T12:48:50.179Z,100558.50
2023-01-01T12:51:29.943Z,100573.47
2023-01-01T12:54:28.335Z,100579.22
2023-01-01T12:57:01.870Z,100586.72
2023-01-01T12:59:31.524Z,100589.28
2023-01-01T13:02:01.631Z,100583.19
2023-01-01T13:04:29.463Z,100592.75
2023-01-01T13:07:05.565Z,100600.03
2023-01-01T13:09:36.022Z,100585.06
2023-01-01T13:12:07.201Z,100588.78
2023-01-01T13:14:39.293Z,100595.81
2023-01-01T13:17:19.932Z,100595.78
2023-01-01T13:19:47.749Z,100592.25
2023-01-01T13:22:44.097Z,100592.50
2023-01-01T13:25:21.437Z,100600.38
2023-01-01T13:28:13.438Z,100608.41
2023-01-01T13:30:51.251Z,100596.84
2023-01-01T13:33:26.004Z,100601.97
2023-01-01T13:36:31.559Z,100613.41
2023-01-01T13:39:01.033Z,100619.44
2023-01-01T13:41:35.391Z,100622.25
2023-01-01T13:44:20.191Z,100616.81
2023-01-01T13:46:56.872Z,100619.69
2023-01-01T13:49:32.222Z,100617.84
2023-01-01T13:52:23.750Z,100620.00
2023-01-01T13:55:29.948Z,100615.97
2023-01-01T13:58:16.021Z,100620.34
2023-01-01T14:00:54.626Z,100613.50
2023-01-01T14:03:22.689Z,100611.38
2023-01-01T14:05:52.028Z,100615.34
2023-01-01T14:08:29.484Z,100615.56
2023-01-01T14:11:00.784Z,100614.50
2023-01-01T14:13:32.402Z,100608.31
2023-01-01T14:16:01.334Z,100618.16
2023-01-01T14:18:33.843Z,100609.50
2023-01-01T14:21:01.588Z,100603.41
2023-01-01T14:23:32.744Z,100613.41
2023-01-01T14:26:04.795Z,100611.06
2023-01-01T14:28:33.466Z,100602.66
2023-01-01T14:31:08.704Z,100611.94
2023-01-01T14:33:38.990Z,100615.09
2023-01-01T14:36:14.839Z,100633.84
2023-01-01T14:38:45.439Z,100643.84
2023-01-01T14:41:18.676Z,100644.31
2023-01-01T14:43:47.533Z,100643.94
2023-01-01T14:46:17.354Z,100644.50
2023-01-01T14:48:46.348Z,100642.16
2023-01-01T14:51:15.953Z,100637.09
2023-01-01T14:53:44.381Z,100645.81
2023-01-01T14:56:11.960Z,100649.31
2023-01-01T14:58:41.833Z,100652.75
2023-01-01T15:01:16.558Z,100649.75
2023-01-01T15:03:59.756Z,100666.13
2023-01-01T15:06:27.514Z,100660.53
2023-01-01T15:08:55.150Z,100655.53
2023-01-01T15:11:28.463Z,100659.19
2023-01-01T15:14:00.356Z,100654.25
2023-01-01T15:16:30.232Z,100642.25
2023-01-01T15:18:59.695Z,100654.69
2023-01-01T15:21:37.325Z,100661.50
2023-01-01T15:24:10.192Z,100647.00
2023-01-01T15:26:42.434Z,100641.56
2023-01-01T15:29:13.121Z,100641.63
2023-01-01T15:31:43.488Z,100642.91
2023-01-01T15:34:24.208Z,100627.84
2023-01-01T15:36:53.485Z,100627.06
2023-01-01T15:39:21.900Z,100627.38
2023-01-01T15:41:50.864Z,100629.25
2023-01-01T15:44:28.320Z,100630.22
2023-01-01T15:47:05.899Z,100636.09
2023-01-01T15:49:34.443Z,100631.69
2023-01-01T15:52:05.490Z,100636.56
2023-01-01T15:54:36.211Z,100635.13
2023-01-01T15:57:03.992Z,100635.47
2023-01-01T15:59:36.823Z,100627.69
2023-01-01T16:02:08.785Z,100631.91
2023-01-01T16:04:37.489Z,100627.44
2023-01-01T16:07:05.125Z,100638.56
2023-01-01T16:09:34.289Z,100645.13
2023-01-01T16:12:01.941Z,100652.97
2023-01-01T16:14:29.637Z,100647.81
2023-01-01T16:17:00.825Z,100644.38
2023-01-01T16:19:30.296Z,100634.38
2023-01-01T16:21:57.860Z,100641.84
2023-01-01T16:24:25.655Z,100649.63
2023-01-01T16:26:53.664Z,100642.22
2023-01-01T16:29:21.315Z,100644.56
2023-01-01T16:31:49.205Z,100642.47
2023-01-01T16:34:18.389Z,100646.28
2023-01-01T16:36:46.327Z,100649.66
2023-01-01T16:39:14.046Z,100641.88
2023-01-01T16:41:42.600Z,100656.59
2023-01-01T16:44:12.436Z,100661.59
2023-01-01T16:46:40.290Z,100649.47
2023-01-01T16:49:07.868Z,100666.13
2023-01-01T16:51:40.620Z,100661.59
2023-01-01T16:54:10.918Z,100661.44
2023-01-01T16:56:38.688Z,100649.19
2023-01-01T16:59:06.408Z,100656.66
2023-01-01T17:01:34.238Z,100660.38
2023-01-01T17:04:02.144Z,100660.53
2023-01-01T17:06:29.866Z,100654.38
2023-01-01T17:08:59.774Z,100644.56
2023-01-01T17:11:27.500Z,100649.94
2023-01-01T17:13:55.212Z,100651.09
2023-01-01T17:16:27.912Z,100637.72
2023-01-01T17:21:44.613Z,100650.66
2023-01-01T17:24:13.972Z,100649.81
2023-01-01T17:26:41.791Z,100644.56
2023-01-01T17:29:09.609Z,100628.88
2023-01-01T17:31:37.732Z,100642.81
2023-01-01T17:34:05.559Z,100628.38
2023-01-01T17:36:33.250Z,100616.31
2023-01-01T17:39:00.982Z,100614.66
2023-01-01T17:41:29.890Z,100611.44
2023-01-01T17:43:58.019Z,100620.56
2023-01-01T17:46:28.216Z,100606.81
2023-01-01T17:48:56.547Z,100600.94
2023-01-01T17:51:24.492Z,100596.84
2023-01-01T17:53:52.183Z,100589.25
2023-01-01T17:56:22.301Z,100584.38
2023-01-01T17:58:52.849Z,100578.41
2023-01-01T18:01:32.196Z,100584.69
2023-01-01T18:04:00.795Z,100580.63
2023-01-01T18:06:29.113Z,100561.63
2023-01-01T18:08:57.390Z,100563.06
2023-01-01T18:11:25.339Z,100557.06
2023-01-01T18:13:54.443Z,100553.66
2023-01-01T18:16:22.284Z,100551.16
2023-01-01T18:18:49.879Z,100553.78
2023-01-01T18:21:21.917Z,100558.13
2023-01-01T18:23:50.820Z,100553.72
2023-01-01T18:26:18.963Z,100552.13
2023-01-01T18:28:46.779Z,100544.00
2023-01-01T18:31:17.125Z,100546.34
2023-01-01T18:33:46.885Z,100538.13
2023-01-01T18:36:16.661Z,100540.97
2023-01-01T18:38:45.826Z,100538.53
2023-01-01T18:41:26.284Z,100534.78
2023-01-01T18:43:53.877Z,100538.91
2023-01-01T18:46:23.432Z,100535.38
2023-01-01T18:48:57.039Z,100530.78
2023-01-01T18:51:26.512Z,100535.13
2023-01-01T18:53:57.063Z,100538.41
2023-01-01T18:56:25.025Z,100533.91
2023-01-01T18:58:52.869Z,100532.16
2023-01-01T19:01:23.479Z,100531.72
2023-01-01T19:03:52.849Z,100529.47
2023-01-01T19:06:27.259Z,100528.03
2023-01-01T19:09:00.859Z,100531.13
2023-01-01T19:11:28.559Z,100530.31
2023-01-01T19:14:02.480Z,100532.16
2023-01-01T19:16:33.090Z,100534.03
2023-01-01T19:19:09.861Z,100525.00
2023-01-01T19:21:37.595Z,100505.19
2023-01-01T19:24:13.028Z,100495.97
2023-01-01T19:26:40.981Z,100501.31
2023-01-01T19:29:15.280Z,100495.13
2023-01-01T19:31:44.478Z,100476.59
2023-01-01T19:34:12.178Z,100484.03
2023-01-01T19:36:39.966Z,100479.06
2023-01-01T19:39:08.189Z,100462.16
2023-01-01T19:41:36.172Z,100451.66
2023-01-01T19:44:08.623Z,100454.34
2023-01-01T19:46:37.629Z,100455.16
2023-01-01T19:49:06.581Z,100443.84
2023-01-01T19:51:34.179Z,100433.94
2023-01-01T19:54:01.762Z,100435.81
2023-01-01T19:56:29.492Z,100431.72
2023-01-01T19:58:57.073Z,100418.91
2023-01-01T20:01:24.738Z,100414.81
2023-01-01T20:03:54.725Z,100407.78
2023-01-01T20:06:25.003Z,100389.63
2023-01-01T20:08:52.887Z,100384.06
2023-01-01T20:11:20.557Z,100383.47
2023-01-01T20:13:48.306Z,100384.13
2023-01-01T20:16:16.156Z,100373.84
2023-01-01T20:18:43.995Z,100369.53
2023-01-01T20:21:29.047Z,100367.88
2023-01-01T20:23:57.890Z,100358.41
2023-01-01T20:26:26.047Z,100364.16
2023-01-01T20:29:11.451Z,100360.06
2023-01-01T20:31:39.279Z,100354.47
2023-01-01T20:34:06.930Z,100350.19
2023-01-01T20:36:52.173Z,100340.31
2023-01-01T20:39:24.544Z,100335.78
2023-01-01T20:41:52.291Z,100334.97
2023-01-01T20:44:20.166Z,100325.91
2023-01-01T20:46:48.377Z,100332.06
2023-01-01T20:49:17.151Z,100317.44
2023-01-01T20:51:44.981Z,100314.75
2023-01-01T20:54:12.734Z,100315.78
2023-01-01T20:56:41.778Z,100300.91
2023-01-01T20:59:33.568Z,100296.59
2023-01-01T21:01:57.075Z,100291.59
2023-01-01T21:04:24.725Z,100290.34
2023-01-01T21:06:52.647Z,100289.31
2023-01-01T21:09:20.428Z,100282.94
2023-01-01T21:11:49.425Z,100288.66
2023-01-01T21:14:17.150Z,100273.84
2023-01-01T21:16:46.108Z,100273.09
2023-01-01T21:19:13.764Z,100258.66
2023-01-01T21:21:45.131Z,100253.75
2023-01-01T21:24:20.870Z,100247.31
2023-01-01T21:26:51.383Z,100231.94
2023-01-01T21:29:21.260Z,100228.81
2023-01-01T21:31:52.095Z,100226.56
2023-01-01T21:34:24.666Z,100219.63
2023-01-01T21:36:52.204Z,100224.84
2023-01-01T21:39:24.683Z,100221.28
2023-01-01T21:41:53.752Z,100222.56
2023-01-01T21:44:21.848Z,100217.69
2023-01-01T21:46:54.242Z,100220.91
2023-01-01T21:49:31.793Z,100211.03
2023-01-01T21:52:00.096Z,100213.69
2023-01-01T21:54:31.651Z,100211.03
2023-01-01T21:57:01.963Z,100203.41
2023-01-01T21:59:37.274Z,100192.94
2023-01-01T22:02:39.062Z,100186.47
2023-01-01T22:05:30.782Z,100178.97
2023-01-01T22:07:59.434Z,100177.31
2023-01-01T22:10:35.935Z,100181.88
2023-01-01T22:13:15.116Z,100178.66
2023-01-01T22:15:43.089Z,100192.38
2023-01-01T22:18:21.001Z,100180.41
2023-01-01T22:20:49.189Z,100178.53
2023-01-01T22:23:38.735Z,100179.75
2023-01-01T22:26:16.462Z,100164.50
2023-01-01T22:28:46.886Z,100172.94
2023-01-01T22:31:19.595Z,100173.53
2023-01-01T22:33:48.107Z,100174.25
2023-01-01T22:36:17.510Z,100171.44
2023-01-01T22:38:45.466Z,100173.44
2023-01-01T22:41:13.516Z,100161.03
2023-01-01T22:43:43.219Z,100166.38
2023-01-01T22:46:21.552Z,100164.44
2023-01-01T22:48:57.257Z,100148.16
2023-01-01T22:51:28.231Z,100153.06
2023-01-01T22:53:55.932Z,100152.25
2023-01-01T22:56:23.638Z,100151.44
2023-01-01T22:58:56.682Z,100144.78
2023-01-01T23:01:26.286Z,100141.53
2023-01-01T23:03:54.232Z,100138.03
2023-01-01T23:06:23.046Z,100132.00
2023-01-01T23:08:50.842Z,100127.34
2023-01-01T23:11:18.895Z,100130.28
2023-01-01T23:14:07.371Z,100126.47
2023-01-01T23:16:36.713Z,100126.38
2023-01-01T23:19:05.194Z,100123.03
2023-01-01T23:21:33.608Z,100122.09
2023-01-01T23:24:02.759Z,100108.69
2023-01-01T23:26:30.653Z,100100.31
2023-01-01T23:28:58.386Z,100089.72
2023-01-01T23:31:27.797Z,100089.50
2023-01-01T23:33:58.253Z,100085.41
2023-01-01T23:36:26.522Z,100084.22
2023-01-01T23:38:54.432Z,100082.03
2023-01-01T23:41:22.551Z,100083.75
2023-01-01T23:43:50.539Z,100078.19
2023-01-01T23:46:19.076Z,100071.31
2023-01-01T23:48:47.377Z,100063.19
2023-01-01T23:51:17.464Z,100055.81
2023-01-01T23:53:45.063Z,100050.22
2023-01-01T23:56:15.708Z,100044.94
2023-01-01T23:58:43.468Z,100043.34
